Snowmass, Colorado
Current Conditions -  °F | °C
As of 4:53 AM on Wednesday 28 Jan 2015 (Local Time) from KASE Reporting Station
Few Clouds Few Clouds  
Wind Chill: 22°   Ceiling: Unl
Heat Index: 29°   Visibility: 10mi
Dew Point: 21°   Wind: 7mph
Humidity: 72%   Direction: 230°SW
Pressure: 30.22"   Gusts: NA
Location:  39.33°N, 106.99°W
Report Text: KASE 281153Z AUTO 23006KT 10SM FEW055 M02/M06 A3022 RMK AO2 SLP196 T10171061 10000 21033 58002
Loading
Personal Weather Stations






























Interactive Weather Map New forecast layout! Learn more

10-Day Weather Forecast

Advertisements
Track Severe Weather on mobile